Time;durP1;ratioP1;P1;durP2;ratioP2;P2;SDS_P1;SDS_P2;PMS_P1;PMS_P2;Temp;Humidity;BMP_temperature;BMP_pressure;BME280_temperature;BME280_humidity;BME280_pressure;Samples;Min_cycle;Max_cycle;Signal;HPM_P1;HPM_P2
2023/08/14 00:01:49;;;;;;;5.32;3.85;;;21.30;99.90;;;;;;5007197;28;20041;-78
2023/08/14 00:04:15;;;;;;;7.72;3.97;;;21.30;99.90;;;;;;5025843;28;20136;-77
2023/08/14 00:06:40;;;;;;;5.38;4.10;;;21.20;99.90;;;;;;5025821;28;20021;-78
2023/08/14 00:09:06;;;;;;;4.90;3.45;;;21.20;99.90;;;;;;5028458;28;20040;-78
2023/08/14 00:11:32;;;;;;;5.20;4.20;;;21.10;99.90;;;;;;5028403;28;20132;-77
2023/08/14 00:13:57;;;;;;;9.32;4.60;;;21.10;99.90;;;;;;5027467;28;20523;-78
2023/08/14 00:16:25;;;;;;;5.55;4.63;;;21.10;99.90;;;;;;5008482;28;20045;-77
2023/08/14 00:18:51;;;;;;;9.00;4.50;;;21.10;99.90;;;;;;5026524;28;20203;-77
2023/08/14 00:21:17;;;;;;;9.38;4.50;;;21.10;99.90;;;;;;5028842;28;20083;-77
2023/08/14 00:23:43;;;;;;;5.55;4.65;;;21.00;99.90;;;;;;5026336;28;20009;-77
2023/08/14 00:26:13;;;;;;;5.30;4.25;;;21.00;99.90;;;;;;5010186;28;20033;-77
2023/08/14 00:28:39;;;;;;;6.95;4.25;;;21.00;99.90;;;;;;5010507;28;20053;-78
2023/08/14 00:31:04;;;;;;;6.68;3.40;;;21.00;99.90;;;;;;5021183;28;20061;-77
2023/08/14 00:33:30;;;;;;;6.45;4.30;;;20.90;99.90;;;;;;5027120;28;20169;-78
2023/08/14 00:35:55;;;;;;;5.97;3.95;;;21.00;99.90;;;;;;5027174;28;20037;-78
2023/08/14 00:38:21;;;;;;;6.57;4.53;;;20.90;99.90;;;;;;5023700;28;20068;-77
2023/08/14 00:40:47;;;;;;;9.15;4.55;;;20.90;99.90;;;;;;5027169;28;20600;-77
2023/08/14 00:43:13;;;;;;;7.53;4.47;;;20.90;99.90;;;;;;5010820;28;20111;-77
2023/08/14 00:45:39;;;;;;;7.28;4.25;;;20.90;99.90;;;;;;5024888;28;20133;-77
2023/08/14 00:48:05;;;;;;;8.32;4.25;;;21.00;99.90;;;;;;5011144;28;20029;-78
2023/08/14 00:50:31;;;;;;;9.23;4.75;;;21.00;99.90;;;;;;5009778;28;20024;-77
2023/08/14 00:52:59;;;;;;;12.07;4.95;;;21.00;99.90;;;;;;5026019;28;20029;-77
2023/08/14 00:55:28;;;;;;;8.73;4.97;;;21.00;99.90;;;;;;5026311;28;20145;-78
2023/08/14 00:57:55;;;;;;;6.82;4.53;;;21.00;99.90;;;;;;5022866;28;20176;-79
2023/08/14 01:00:22;;;;;;;8.32;5.30;;;21.00;99.90;;;;;;5009899;28;20503;-77
2023/08/14 01:02:49;;;;;;;4.80;4.30;;;21.00;99.90;;;;;;5023393;28;20595;-77
2023/08/14 01:05:14;;;;;;;14.25;6.25;;;21.00;99.90;;;;;;5024137;28;20027;-77
2023/08/14 01:07:40;;;;;;;7.90;4.68;;;21.00;99.90;;;;;;5025059;28;20479;-77
2023/08/14 01:10:10;;;;;;;5.93;4.72;;;21.00;99.90;;;;;;5027934;28;20561;-77
2023/08/14 01:12:45;;;;;;;6.13;4.38;;;21.00;99.90;;;;;;5008069;28;20036;-78
2023/08/14 01:15:16;;;;;;;7.47;4.43;;;21.00;99.90;;;;;;5008634;28;20090;-77
2023/08/14 01:17:50;;;;;;;7.25;4.97;;;21.00;99.90;;;;;;5024795;28;20438;-77
2023/08/14 01:20:18;;;;;;;8.77;4.13;;;21.00;99.90;;;;;;5024749;28;20025;-77
2023/08/14 01:23:03;;;;;;;6.15;5.10;;;21.00;99.90;;;;;;5026334;28;20123;-78
2023/08/14 01:25:37;;;;;;;8.70;4.95;;;20.90;99.90;;;;;;5005843;28;20033;-78
2023/08/14 01:28:04;;;;;;;8.23;5.07;;;20.90;99.90;;;;;;5012356;28;20030;-78
2023/08/14 01:30:30;;;;;;;10.43;5.65;;;20.90;99.90;;;;;;5023806;28;20037;-77
2023/08/14 01:32:56;;;;;;;10.07;4.93;;;20.80;99.90;;;;;;5008663;28;20408;-77
2023/08/14 01:35:24;;;;;;;6.15;4.47;;;20.80;99.90;;;;;;5024446;28;20022;-77
2023/08/14 01:37:50;;;;;;;7.40;5.20;;;20.90;99.90;;;;;;5012843;28;20030;-77
2023/08/14 01:40:43;;;;;;;14.55;6.20;;;20.80;99.90;;;;;;5007193;28;20449;-77
2023/08/14 01:43:22;;;;;;;14.05;5.75;;;20.90;99.90;;;;;;5023936;28;20029;-78
2023/08/14 01:45:47;;;;;;;11.88;5.00;;;20.80;99.90;;;;;;5023142;28;20037;-79
2023/08/14 01:48:14;;;;;;;7.20;4.22;;;20.70;99.90;;;;;;5024809;28;20022;-78
2023/08/14 01:50:41;;;;;;;9.45;4.32;;;20.60;99.90;;;;;;5025198;28;20322;-78
2023/08/14 01:53:07;;;;;;;5.00;3.15;;;20.50;99.90;;;;;;5027507;28;20035;-78
2023/08/14 01:55:33;;;;;;;8.40;3.58;;;20.50;99.90;;;;;;5010305;28;20033;-78
2023/08/14 01:57:58;;;;;;;12.65;3.10;;;20.50;99.90;;;;;;5022543;28;20492;-78
2023/08/14 02:00:24;;;;;;;8.00;3.80;;;20.50;99.90;;;;;;5007679;28;20069;-78
2023/08/14 02:02:50;;;;;;;6.97;2.55;;;20.50;99.90;;;;;;5024531;28;20487;-77
2023/08/14 02:05:16;;;;;;;3.22;2.38;;;20.40;99.90;;;;;;5023609;28;20480;-77
2023/08/14 02:07:42;;;;;;;4.30;2.88;;;20.40;99.90;;;;;;5004383;28;20053;-77
2023/08/14 02:10:08;;;;;;;7.75;3.90;;;20.40;99.90;;;;;;5020469;28;20087;-77
2023/08/14 02:12:33;;;;;;;7.70;3.00;;;20.30;99.90;;;;;;5005403;28;20044;-78
2023/08/14 02:14:59;;;;;;;7.65;2.55;;;20.40;99.90;;;;;;5006867;28;20725;-78
2023/08/14 02:17:27;;;;;;;3.78;2.63;;;20.30;99.90;;;;;;5026623;28;20048;-78
2023/08/14 02:19:53;;;;;;;7.50;2.35;;;20.30;99.90;;;;;;5008477;28;20533;-78
2023/08/14 02:22:19;;;;;;;7.93;3.03;;;20.30;99.90;;;;;;5007370;28;20441;-78
2023/08/14 02:24:44;;;;;;;3.45;2.22;;;20.30;99.90;;;;;;5022200;28;20021;-77
2023/08/14 02:27:10;;;;;;;5.90;2.75;;;20.30;99.90;;;;;;5024095;28;20108;-77
2023/08/14 02:29:35;;;;;;;3.88;2.60;;;20.30;99.90;;;;;;5024341;28;20729;-78
2023/08/14 02:32:01;;;;;;;6.60;2.78;;;20.20;99.90;;;;;;5009310;28;20021;-77
2023/08/14 02:34:47;;;;;;;3.25;2.40;;;20.20;99.90;;;;;;5006373;28;20392;-77
2023/08/14 02:37:14;;;;;;;4.55;2.72;;;20.20;99.90;;;;;;5023904;28;20454;-79
2023/08/14 02:39:40;;;;;;;5.30;3.30;;;20.20;99.90;;;;;;5026420;28;20052;-78
2023/08/14 02:42:06;;;;;;;11.20;2.97;;;20.20;99.90;;;;;;5012378;28;20026;-79
2023/08/14 02:44:32;;;;;;;5.38;3.22;;;20.20;99.90;;;;;;5028054;28;20013;-77
2023/08/14 02:46:58;;;;;;;5.28;2.70;;;20.20;99.90;;;;;;5007967;28;20083;-77
2023/08/14 02:49:24;;;;;;;4.20;2.45;;;20.20;99.90;;;;;;5030974;28;20033;-78
2023/08/14 02:51:50;;;;;;;4.57;2.53;;;20.20;99.90;;;;;;5028445;28;20404;-78
2023/08/14 02:54:15;;;;;;;4.68;3.40;;;20.10;99.90;;;;;;5030218;28;20046;-78
2023/08/14 02:56:41;;;;;;;2.75;2.50;;;20.10;99.90;;;;;;5027831;28;20026;-77
2023/08/14 02:59:07;;;;;;;5.90;2.60;;;20.10;99.90;;;;;;5027348;28;20025;-77
2023/08/14 03:01:32;;;;;;;4.15;2.80;;;20.10;99.90;;;;;;5027658;28;20029;-78
2023/08/14 03:03:58;;;;;;;5.43;2.72;;;20.10;99.90;;;;;;5027567;28;20022;-77
2023/08/14 03:06:23;;;;;;;9.68;2.65;;;20.00;99.90;;;;;;5028892;28;20534;-78
2023/08/14 03:08:50;;;;;;;6.38;2.50;;;20.00;99.90;;;;;;5016300;28;20087;-77
2023/08/14 03:11:16;;;;;;;3.78;2.40;;;20.00;99.90;;;;;;5012199;28;20487;-77
2023/08/14 03:13:42;;;;;;;2.95;2.28;;;20.00;99.90;;;;;;5023260;28;20194;-77
2023/08/14 03:16:08;;;;;;;3.63;2.47;;;20.00;99.90;;;;;;5026543;28;20072;-77
2023/08/14 03:18:33;;;;;;;4.78;2.55;;;20.00;99.90;;;;;;5027308;28;20061;-77
2023/08/14 03:20:59;;;;;;;3.78;2.60;;;20.00;99.90;;;;;;5032583;28;20057;-77
2023/08/14 03:23:25;;;;;;;4.07;2.42;;;20.10;99.90;;;;;;5028451;28;20067;-76
2023/08/14 03:25:50;;;;;;;5.05;2.55;;;20.00;99.90;;;;;;5027309;28;20625;-76
2023/08/14 03:28:16;;;;;;;7.22;2.60;;;20.00;99.90;;;;;;5025167;28;20108;-77
2023/08/14 03:30:42;;;;;;;3.92;2.60;;;20.00;99.90;;;;;;5030060;28;20087;-77
2023/08/14 03:33:08;;;;;;;4.53;3.00;;;20.00;99.90;;;;;;5011436;28;20033;-76
2023/08/14 03:35:34;;;;;;;5.90;3.20;;;20.00;99.90;;;;;;5014386;28;20525;-76
2023/08/14 03:37:59;;;;;;;8.90;3.33;;;19.90;99.90;;;;;;5011188;28;20400;-77
2023/08/14 03:40:25;;;;;;;5.65;3.13;;;19.90;99.90;;;;;;5029747;28;20564;-78
2023/08/14 03:42:51;;;;;;;5.57;2.75;;;19.90;99.90;;;;;;5029295;28;20025;-77
2023/08/14 03:45:16;;;;;;;5.10;3.25;;;19.90;99.90;;;;;;5027715;28;20164;-76
2023/08/14 03:47:42;;;;;;;4.97;2.85;;;19.90;99.90;;;;;;5029682;28;20010;-76
2023/08/14 03:50:08;;;;;;;5.50;3.67;;;19.80;99.90;;;;;;5028084;28;20033;-76
2023/08/14 03:52:33;;;;;;;4.57;2.67;;;19.80;99.90;;;;;;5031388;28;20402;-76
2023/08/14 03:54:59;;;;;;;5.68;2.85;;;19.80;99.90;;;;;;5030324;28;20064;-76
2023/08/14 03:57:25;;;;;;;4.63;3.08;;;19.70;99.90;;;;;;5029542;28;20056;-75
2023/08/14 03:59:50;;;;;;;3.97;3.13;;;19.70;99.90;;;;;;5027660;28;20041;-75
2023/08/14 04:02:16;;;;;;;6.80;3.00;;;19.70;99.90;;;;;;5029285;28;20025;-75
2023/08/14 04:04:42;;;;;;;3.67;2.65;;;19.70;99.90;;;;;;5009379;28;20523;-76
2023/08/14 04:07:07;;;;;;;3.72;2.95;;;19.80;99.90;;;;;;5011565;28;20132;-77
2023/08/14 04:09:33;;;;;;;4.00;3.05;;;19.70;99.90;;;;;;5030136;28;20013;-75
2023/08/14 04:12:00;;;;;;;7.45;3.83;;;19.70;99.90;;;;;;5024739;28;20037;-75
2023/08/14 04:14:26;;;;;;;5.43;3.63;;;19.70;99.90;;;;;;5025221;28;20033;-75
2023/08/14 04:16:54;;;;;;;4.88;3.45;;;19.70;99.90;;;;;;5025800;28;20037;-75
2023/08/14 04:19:20;;;;;;;5.93;3.65;;;19.70;99.90;;;;;;5026833;28;20075;-75
2023/08/14 04:21:46;;;;;;;8.82;4.40;;;19.80;99.90;;;;;;5008977;28;20030;-75
2023/08/14 04:24:12;;;;;;;6.28;3.75;;;19.80;99.90;;;;;;5011912;28;20175;-75
2023/08/14 04:26:38;;;;;;;6.40;4.43;;;19.80;99.90;;;;;;5012777;28;20396;-75
2023/08/14 04:29:06;;;;;;;7.97;3.88;;;19.80;99.90;;;;;;5029949;28;20406;-75
2023/08/14 04:31:35;;;;;;;6.47;4.57;;;19.80;99.90;;;;;;5011068;28;20063;-75
2023/08/14 04:34:02;;;;;;;5.32;4.30;;;19.80;99.90;;;;;;5008685;28;20044;-76
2023/08/14 04:36:30;;;;;;;10.07;4.80;;;19.80;99.90;;;;;;5021342;28;20037;-76
2023/08/14 04:38:56;;;;;;;5.95;4.47;;;19.80;99.90;;;;;;5020667;28;20102;-75
2023/08/14 04:41:21;;;;;;;7.10;4.28;;;19.80;99.90;;;;;;5027340;28;20479;-75
2023/08/14 04:43:47;;;;;;;5.65;4.32;;;19.90;99.90;;;;;;5024659;28;20029;-75
2023/08/14 04:46:31;;;;;;;6.65;3.88;;;19.80;99.90;;;;;;5024886;28;20535;-75
2023/08/14 04:48:57;;;;;;;6.13;3.60;;;19.80;99.90;;;;;;5022590;28;20474;-74
2023/08/14 04:51:23;;;;;;;4.65;3.45;;;19.80;99.90;;;;;;5019000;28;20040;-75
2023/08/14 04:53:48;;;;;;;6.47;3.70;;;19.80;99.90;;;;;;5030025;28;20021;-75
2023/08/14 04:56:14;;;;;;;7.25;3.85;;;19.80;99.90;;;;;;5028163;28;20022;-75
2023/08/14 04:58:39;;;;;;;9.32;3.45;;;19.80;99.90;;;;;;5011386;28;20369;-75
2023/08/14 05:01:05;;;;;;;3.78;2.72;;;19.80;99.90;;;;;;5011731;28;20029;-75
2023/08/14 05:03:31;;;;;;;5.25;3.10;;;19.80;99.90;;;;;;5026113;28;20017;-75
2023/08/14 05:05:56;;;;;;;5.97;3.42;;;19.80;99.90;;;;;;5013481;28;20504;-75
2023/08/14 05:08:22;;;;;;;4.47;3.28;;;19.80;99.90;;;;;;5024140;28;20400;-72
2023/08/14 05:10:51;;;;;;;5.07;4.00;;;19.80;99.90;;;;;;5039176;23;20041;-71
2023/08/14 05:13:20;;;;;;;3.50;3.10;;;19.80;99.90;;;;;;4984596;28;20064;-71
2023/08/14 05:15:47;;;;;;;6.50;4.03;;;19.80;99.90;;;;;;4991272;28;20029;-72
2023/08/14 05:18:13;;;;;;;9.60;3.78;;;19.80;99.90;;;;;;5001156;28;20429;-72
2023/08/14 05:20:42;;;;;;;8.45;3.88;;;19.80;99.90;;;;;;5005320;28;20141;-72
2023/08/14 05:23:08;;;;;;;4.72;3.17;;;19.90;99.90;;;;;;4988026;28;20429;-71
2023/08/14 05:25:34;;;;;;;4.35;3.67;;;19.90;99.90;;;;;;4969787;28;20080;-72
2023/08/14 05:27:59;;;;;;;4.47;3.45;;;19.90;99.90;;;;;;4985515;28;20038;-72
2023/08/14 05:30:25;;;;;;;5.28;3.58;;;19.90;99.90;;;;;;4986276;28;20026;-74
2023/08/14 05:32:50;;;;;;;4.68;3.80;;;20.00;99.90;;;;;;4988197;28;20022;-73
2023/08/14 05:35:16;;;;;;;9.38;3.78;;;20.00;99.90;;;;;;4987489;28;20057;-73
2023/08/14 05:37:42;;;;;;;6.63;3.88;;;20.10;99.90;;;;;;4986724;28;20416;-72
2023/08/14 05:40:10;;;;;;;7.28;3.90;;;20.10;99.90;;;;;;4990027;28;20032;-72
2023/08/14 05:42:36;;;;;;;6.65;3.53;;;20.20;99.90;;;;;;4984212;28;20038;-72
2023/08/14 05:45:02;;;;;;;5.72;3.30;;;20.20;99.90;;;;;;4971271;28;20556;-74
2023/08/14 05:47:28;;;;;;;6.10;3.80;;;20.30;99.90;;;;;;4987194;28;20097;-75
2023/08/14 05:49:53;;;;;;;6.13;3.67;;;20.30;99.90;;;;;;4991387;28;20440;-74
2023/08/14 05:52:19;;;;;;;6.30;3.78;;;20.40;99.90;;;;;;4993861;28;20018;-74
2023/08/14 05:54:44;;;;;;;4.00;3.58;;;20.40;99.90;;;;;;4992894;28;20022;-74
2023/08/14 05:57:10;;;;;;;4.32;3.40;;;20.40;99.90;;;;;;4989368;28;20074;-74
2023/08/14 05:59:36;;;;;;;6.72;3.45;;;20.50;99.90;;;;;;4972801;28;20042;-75
2023/08/14 06:02:01;;;;;;;5.05;3.38;;;20.60;99.90;;;;;;4987525;28;20038;-75
2023/08/14 06:04:27;;;;;;;6.10;4.10;;;20.70;99.90;;;;;;4969232;28;20033;-74
2023/08/14 06:06:53;;;;;;;5.90;3.88;;;20.80;99.90;;;;;;4969025;28;20460;-74
2023/08/14 06:09:19;;;;;;;6.78;3.45;;;20.90;99.90;;;;;;4972440;28;20118;-74
2023/08/14 06:11:45;;;;;;;10.25;3.97;;;21.00;99.90;;;;;;4969126;28;20040;-75
2023/08/14 06:14:11;;;;;;;4.85;3.83;;;21.10;99.90;;;;;;4987296;28;20112;-74
2023/08/14 06:16:36;;;;;;;8.10;3.40;;;21.20;99.90;;;;;;4972988;28;20029;-75
2023/08/14 06:19:02;;;;;;;5.78;3.47;;;21.30;99.90;;;;;;4975493;28;20080;-75
2023/08/14 06:21:28;;;;;;;9.70;3.78;;;21.40;99.90;;;;;;4990999;28;20026;-75
2023/08/14 06:23:53;;;;;;;6.93;3.53;;;21.40;99.90;;;;;;4989964;28;20023;-74
2023/08/14 06:26:19;;;;;;;8.40;4.40;;;21.40;99.90;;;;;;4992766;28;20015;-75
2023/08/14 06:28:44;;;;;;;7.82;4.32;;;21.40;99.90;;;;;;4991034;28;20041;-74
2023/08/14 06:31:10;;;;;;;6.78;4.07;;;21.30;99.90;;;;;;4989648;28;20042;-74
2023/08/14 06:33:36;;;;;;;7.72;4.05;;;21.30;99.90;;;;;;4991649;28;20473;-75
2023/08/14 06:36:01;;;;;;;5.82;3.85;;;21.30;99.90;;;;;;4994600;28;20503;-75
2023/08/14 06:38:27;;;;;;;7.63;4.68;;;21.30;99.90;;;;;;4989380;28;20039;-75
2023/08/14 06:40:53;;;;;;;8.52;4.50;;;21.40;99.90;;;;;;4991044;28;20057;-75
2023/08/14 06:43:20;;;;;;;7.80;4.22;;;21.40;99.90;;;;;;4971667;28;20076;-75
2023/08/14 06:45:46;;;;;;;4.85;3.80;;;21.40;99.90;;;;;;4965725;28;20442;-75
2023/08/14 06:48:12;;;;;;;6.38;3.80;;;21.50;99.90;;;;;;4983746;28;20035;-75
2023/08/14 06:50:38;;;;;;;8.38;5.13;;;21.60;99.90;;;;;;4966929;28;20484;-75
2023/08/14 06:53:03;;;;;;;5.07;4.45;;;21.60;99.90;;;;;;4989579;28;20037;-75
2023/08/14 06:55:29;;;;;;;5.38;3.90;;;21.70;99.90;;;;;;4984734;28;20080;-74
2023/08/14 06:57:54;;;;;;;8.10;4.18;;;21.70;99.90;;;;;;4968797;28;20049;-73
2023/08/14 07:00:20;;;;;;;7.85;4.60;;;21.70;99.90;;;;;;4984639;28;20038;-74
2023/08/14 07:02:47;;;;;;;5.43;3.90;;;21.80;99.90;;;;;;4985643;28;20298;-74
2023/08/14 07:05:12;;;;;;;5.18;3.97;;;21.80;99.90;;;;;;4984459;28;20372;-74
2023/08/14 07:07:39;;;;;;;7.03;4.18;;;21.80;99.90;;;;;;4989949;28;20023;-74
2023/08/14 07:10:05;;;;;;;6.10;3.55;;;21.90;99.90;;;;;;4990641;28;20027;-75
2023/08/14 07:12:31;;;;;;;9.20;3.67;;;21.90;99.90;;;;;;4981682;28;20177;-74
2023/08/14 07:14:56;;;;;;;6.18;3.97;;;22.00;99.90;;;;;;4984469;28;20022;-75
2023/08/14 07:17:22;;;;;;;4.93;3.45;;;22.00;99.90;;;;;;4985889;28;20027;-75
2023/08/14 07:19:47;;;;;;;5.18;3.60;;;22.10;99.90;;;;;;4986467;28;20057;-75
2023/08/14 07:22:13;;;;;;;4.13;3.03;;;22.20;99.90;;;;;;4983125;28;20124;-74
2023/08/14 07:24:39;;;;;;;4.93;3.40;;;22.20;99.90;;;;;;4970189;28;20037;-74
2023/08/14 07:27:04;;;;;;;5.65;3.33;;;22.20;99.90;;;;;;4993901;28;20436;-74
2023/08/14 07:29:30;;;;;;;6.40;3.53;;;22.30;99.90;;;;;;4974924;28;20022;-74
2023/08/14 07:31:55;;;;;;;4.43;3.10;;;22.40;99.90;;;;;;4990652;28;20468;-73
2023/08/14 07:34:21;;;;;;;8.23;3.20;;;22.40;99.90;;;;;;4993225;28;20034;-73
2023/08/14 07:36:46;;;;;;;4.80;2.70;;;22.50;99.90;;;;;;4991143;28;20035;-73
2023/08/14 07:39:12;;;;;;;3.40;2.72;;;22.50;99.90;;;;;;4990680;28;20556;-72
2023/08/14 07:41:38;;;;;;;4.85;2.72;;;22.60;99.90;;;;;;4987194;28;20033;-73
2023/08/14 07:44:03;;;;;;;5.32;2.85;;;22.70;99.90;;;;;;4985236;28;20113;-75
2023/08/14 07:46:29;;;;;;;4.45;2.55;;;22.80;99.90;;;;;;4972172;28;20030;-76
2023/08/14 07:48:55;;;;;;;7.40;3.13;;;22.90;99.90;;;;;;4991091;28;20022;-75
2023/08/14 07:51:20;;;;;;;5.05;3.05;;;22.90;99.90;;;;;;4992295;28;20025;-75
2023/08/14 07:53:46;;;;;;;9.23;3.10;;;23.00;99.90;;;;;;4994664;28;20026;-75
2023/08/14 07:56:12;;;;;;;5.78;2.85;;;23.10;99.90;;;;;;4994325;28;20045;-75
2023/08/14 07:58:39;;;;;;;4.57;2.28;;;23.20;99.90;;;;;;4989530;28;20489;-75
2023/08/14 08:01:05;;;;;;;3.15;2.67;;;23.40;99.90;;;;;;4994839;28;20366;-75
2023/08/14 08:03:31;;;;;;;5.38;3.22;;;23.40;99.90;;;;;;4987652;28;20026;-75
2023/08/14 08:05:56;;;;;;;5.90;2.90;;;23.50;99.90;;;;;;4969917;28;20033;-75
2023/08/14 08:08:22;;;;;;;4.32;2.35;;;23.60;99.90;;;;;;4995302;28;20030;-76
2023/08/14 08:10:47;;;;;;;8.02;2.92;;;23.60;99.90;;;;;;4992329;28;20117;-76
2023/08/14 08:13:13;;;;;;;11.10;3.13;;;23.70;99.90;;;;;;4994705;28;20096;-76
2023/08/14 08:15:38;;;;;;;4.40;2.97;;;23.80;99.90;;;;;;4992525;28;20314;-76
2023/08/14 08:18:04;;;;;;;5.95;2.78;;;23.90;99.90;;;;;;4985503;28;20076;-75
2023/08/14 08:20:30;;;;;;;6.68;3.10;;;23.90;99.90;;;;;;4993791;28;20218;-75
2023/08/14 08:22:55;;;;;;;5.57;2.67;;;24.00;99.90;;;;;;4973085;28;20058;-75
2023/08/14 08:25:21;;;;;;;6.57;3.17;;;24.10;99.90;;;;;;4975523;28;20034;-75
2023/08/14 08:27:47;;;;;;;7.75;3.20;;;24.10;99.90;;;;;;4990087;28;20022;-75
2023/08/14 08:30:13;;;;;;;3.72;2.90;;;24.30;99.90;;;;;;4990957;28;20598;-75
2023/08/14 08:32:39;;;;;;;3.97;2.75;;;24.30;99.90;;;;;;4985378;28;20038;-76
2023/08/14 08:35:04;;;;;;;3.38;2.70;;;24.40;99.90;;;;;;4992242;28;20027;-76
2023/08/14 08:37:30;;;;;;;4.65;2.88;;;24.50;99.90;;;;;;4970823;28;20031;-76
2023/08/14 08:39:55;;;;;;;7.22;3.15;;;24.60;99.90;;;;;;4974299;28;20034;-77
2023/08/14 08:42:22;;;;;;;4.65;3.00;;;24.70;99.90;;;;;;4994682;28;20034;-77
2023/08/14 08:44:49;;;;;;;6.88;3.30;;;24.80;99.90;;;;;;4989564;28;20540;-77
2023/08/14 08:47:17;;;;;;;3.17;2.70;;;24.90;99.90;;;;;;4988178;28;20022;-77
2023/08/14 08:49:43;;;;;;;4.20;3.10;;;25.00;99.90;;;;;;4987901;28;20032;-76
2023/08/14 08:52:10;;;;;;;4.75;3.05;;;25.10;99.90;;;;;;4986289;28;20077;-75
2023/08/14 08:54:36;;;;;;;5.97;3.28;;;25.20;99.90;;;;;;4992887;28;20369;-76
2023/08/14 08:57:04;;;;;;;5.40;2.90;;;25.20;99.90;;;;;;4991630;28;20037;-76
2023/08/14 08:59:31;;;;;;;5.30;2.83;;;25.30;99.90;;;;;;4981702;28;20463;-76
2023/08/14 09:01:56;;;;;;;5.78;2.65;;;25.40;99.90;;;;;;4990723;28;20042;-75
2023/08/14 09:04:22;;;;;;;5.32;2.72;;;25.40;99.90;;;;;;4990187;28;20503;-76
2023/08/14 09:06:48;;;;;;;4.25;2.38;;;25.50;99.90;;;;;;4986727;28;20084;-77
2023/08/14 09:09:14;;;;;;;3.10;2.70;;;25.50;99.90;;;;;;4976763;28;20098;-75
2023/08/14 09:11:40;;;;;;;3.67;2.47;;;25.60;99.90;;;;;;4990254;28;20037;-76
2023/08/14 09:14:09;;;;;;;8.07;3.20;;;25.60;99.90;;;;;;4992145;28;20023;-75
2023/08/14 09:16:36;;;;;;;8.43;3.63;;;25.70;99.90;;;;;;4995448;28;20504;-75
2023/08/14 09:19:01;;;;;;;5.18;2.70;;;25.80;99.90;;;;;;4995574;28;20058;-76
2023/08/14 09:21:28;;;;;;;5.10;2.83;;;25.90;99.90;;;;;;4986502;28;20718;-77
2023/08/14 09:23:54;;;;;;;4.32;2.95;;;25.90;99.90;;;;;;4992777;28;20124;-76
2023/08/14 09:26:20;;;;;;;5.95;3.05;;;26.00;99.90;;;;;;4988887;28;20018;-74
2023/08/14 09:28:46;;;;;;;3.38;2.75;;;26.10;99.90;;;;;;4988268;28;20022;-76
2023/08/14 09:31:13;;;;;;;5.38;3.08;;;26.10;99.90;;;;;;4979219;28;20038;-77
2023/08/14 09:33:40;;;;;;;6.18;3.22;;;26.20;99.90;;;;;;4975057;28;20346;-77
2023/08/14 09:36:06;;;;;;;3.08;2.58;;;26.30;99.90;;;;;;4965106;28;20026;-74
2023/08/14 09:38:32;;;;;;;4.85;3.22;;;26.30;99.90;;;;;;4985978;28;20058;-76
2023/08/14 09:40:58;;;;;;;3.80;2.70;;;26.30;99.90;;;;;;4989099;28;20100;-75
2023/08/14 09:43:25;;;;;;;4.82;2.58;;;26.40;99.90;;;;;;4974569;28;20380;-75
2023/08/14 09:45:56;;;;;;;3.67;2.92;;;26.40;99.90;;;;;;4990796;28;20085;-76
2023/08/14 09:48:23;;;;;;;5.55;2.85;;;26.50;99.90;;;;;;4973195;28;20494;-76
2023/08/14 09:50:52;;;;;;;3.33;2.90;;;26.60;99.90;;;;;;4990794;28;20505;-76
2023/08/14 09:53:18;;;;;;;3.50;2.53;;;26.70;99.90;;;;;;4991149;28;20454;-76
2023/08/14 09:55:43;;;;;;;6.00;3.25;;;26.80;99.90;;;;;;4990388;28;20034;-76
2023/08/14 09:58:09;;;;;;;4.03;2.72;;;26.80;99.90;;;;;;4990316;28;20108;-75
2023/08/14 10:00:37;;;;;;;3.63;2.60;;;27.00;99.90;;;;;;4985312;28;20416;-75
2023/08/14 10:03:07;;;;;;;3.90;2.60;;;27.10;99.90;;;;;;4989912;28;20037;-76
2023/08/14 10:05:33;;;;;;;3.88;2.70;;;27.20;99.90;;;;;;4986446;28;21969;-77
2023/08/14 10:08:00;;;;;;;5.03;2.83;;;27.40;99.90;;;;;;4968530;28;20053;-77
2023/08/14 10:10:30;;;;;;;4.30;2.72;;;27.50;99.90;;;;;;4986787;28;20505;-77
2023/08/14 10:13:07;;;;;;;4.22;2.92;;;27.60;99.90;;;;;;4965183;28;20066;-77
2023/08/14 10:15:37;;;;;;;4.50;2.75;;;27.70;99.90;;;;;;4989179;28;20045;-77
2023/08/14 10:18:23;;;;;;;5.28;2.85;;;27.80;99.90;;;;;;4985729;28;20449;-78
2023/08/14 10:20:50;;;;;;;4.25;3.00;;;27.80;99.90;;;;;;4985197;28;20666;-78
2023/08/14 10:23:16;;;;;;;4.70;2.75;;;27.90;99.90;;;;;;4965893;28;20540;-77
2023/08/14 10:25:47;;;;;;;5.45;3.13;;;27.90;99.90;;;;;;4983017;28;20057;-78
2023/08/14 10:28:13;;;;;;;5.10;3.00;;;28.00;99.90;;;;;;4985951;28;20489;-77
2023/08/14 10:30:39;;;;;;;3.28;2.97;;;28.10;99.90;;;;;;4982774;28;20058;-78
2023/08/14 10:33:06;;;;;;;4.90;2.78;;;28.20;99.90;;;;;;4969384;28;20030;-78
2023/08/14 10:35:44;;;;;;;4.18;2.60;;;28.30;99.90;;;;;;4973711;28;20041;-77
2023/08/14 10:38:10;;;;;;;3.30;2.92;;;28.40;99.90;;;;;;4977295;28;20028;-77
2023/08/14 10:40:36;;;;;;;5.30;2.80;;;28.40;99.90;;;;;;4971879;28;20034;-77
2023/08/14 10:43:01;;;;;;;8.30;2.65;;;28.50;99.90;;;;;;4979165;28;20572;-77
2023/08/14 10:45:28;;;;;;;4.60;2.85;;;28.60;99.90;;;;;;4983062;28;20071;-76
2023/08/14 10:48:08;;;;;;;3.38;2.47;;;28.70;99.90;;;;;;4979039;28;20038;-77
2023/08/14 10:50:34;;;;;;;3.60;2.60;;;28.80;99.90;;;;;;4974391;28;20488;-77
2023/08/14 10:53:03;;;;;;;3.10;2.80;;;28.90;99.90;;;;;;4966893;28;20034;-77
2023/08/14 10:55:40;;;;;;;7.47;3.90;;;29.00;99.90;;;;;;4978370;28;20033;-77
2023/08/14 10:58:28;;;;;;;3.55;3.05;;;29.10;99.90;;;;;;4982923;28;20164;-77
2023/08/14 11:00:54;;;;;;;4.95;2.83;;;29.30;99.90;;;;;;4960674;28;20030;-76
2023/08/14 11:03:20;;;;;;;3.80;2.75;;;29.30;99.90;;;;;;4982470;28;20031;-77
2023/08/14 11:05:46;;;;;;;3.78;2.90;;;29.30;99.90;;;;;;4969866;28;20033;-76
2023/08/14 11:08:15;;;;;;;4.85;3.00;;;29.40;99.80;;;;;;4982862;28;20487;-76
2023/08/14 11:10:42;;;;;;;4.50;2.85;;;29.40;99.60;;;;;;4968582;28;20109;-76
2023/08/14 11:13:08;;;;;;;6.55;3.05;;;29.40;99.20;;;;;;4999670;23;20050;-73
2023/08/14 11:15:36;;;;;;;5.57;3.03;;;29.40;98.70;;;;;;4987745;28;20018;-73
2023/08/14 11:18:05;;;;;;;4.40;2.72;;;29.40;97.90;;;;;;4971648;28;20026;-74
2023/08/14 11:20:31;;;;;;;4.65;3.10;;;29.40;98.00;;;;;;4972613;28;20039;-73
2023/08/14 11:22:57;;;;;;;7.38;2.92;;;29.50;97.70;;;;;;4960983;28;20156;-74
2023/08/14 11:25:22;;;;;;;4.60;3.22;;;29.50;97.60;;;;;;4969900;28;20507;-74
2023/08/14 11:27:51;;;;;;;7.70;3.35;;;29.60;97.60;;;;;;4985146;28;20038;-75
2023/08/14 11:30:18;;;;;;;4.75;3.58;;;29.60;97.30;;;;;;4984884;28;20022;-74
2023/08/14 11:32:43;;;;;;;4.85;3.40;;;29.70;97.80;;;;;;4986498;28;20026;-74
2023/08/14 11:35:10;;;;;;;3.33;2.60;;;29.80;99.10;;;;;;4981688;28;20031;-74
2023/08/14 11:37:36;;;;;;;7.97;3.30;;;29.90;97.70;;;;;;4988855;28;20506;-73
2023/08/14 11:40:07;;;;;;;6.47;3.30;;;30.00;97.00;;;;;;4985762;28;20030;-74
2023/08/14 11:42:33;;;;;;;5.93;3.10;;;30.00;96.50;;;;;;4987213;28;20114;-73
2023/08/14 11:45:03;;;;;;;3.17;2.80;;;30.00;96.50;;;;;;4978905;28;20034;-73
2023/08/14 11:47:35;;;;;;;6.43;3.00;;;30.00;96.40;;;;;;4984445;28;20558;-73
2023/08/14 11:50:03;;;;;;;5.65;3.00;;;30.00;96.50;;;;;;4982554;28;20033;-73
2023/08/14 11:52:30;;;;;;;4.07;3.40;;;29.90;96.50;;;;;;4966046;28;20030;-73
2023/08/14 11:54:56;;;;;;;4.97;3.60;;;29.80;96.40;;;;;;4967410;28;20033;-73
2023/08/14 11:57:29;;;;;;;5.78;3.13;;;29.70;96.50;;;;;;4975380;28;20026;-73
2023/08/14 11:59:56;;;;;;;4.40;2.45;;;29.70;96.10;;;;;;4985193;28;20499;-73
2023/08/14 12:02:26;;;;;;;5.15;3.08;;;29.60;95.90;;;;;;4966808;28;20109;-73
2023/08/14 12:04:59;;;;;;;5.13;3.40;;;29.60;95.80;;;;;;4983158;28;20403;-73
2023/08/14 12:07:26;;;;;;;3.67;2.80;;;29.60;96.00;;;;;;4985160;28;20031;-75
2023/08/14 12:09:56;;;;;;;3.08;2.75;;;29.50;96.00;;;;;;4980035;28;20034;-74
2023/08/14 12:12:24;;;;;;;6.65;3.50;;;29.40;96.10;;;;;;4989183;28;20077;-74
2023/08/14 12:14:51;;;;;;;6.05;3.10;;;29.40;96.10;;;;;;4966270;28;20528;-74
2023/08/14 12:17:18;;;;;;;4.25;2.63;;;29.30;98.50;;;;;;4987725;28;20030;-74
2023/08/14 12:19:54;;;;;;;5.15;3.38;;;29.20;99.90;;;;;;4985556;28;20053;-73
2023/08/14 12:22:22;;;;;;;7.38;3.15;;;29.10;99.90;;;;;;4982623;28;26645;-73
2023/08/14 12:24:48;;;;;;;5.57;3.20;;;29.00;99.90;;;;;;4977852;28;20050;-75
2023/08/14 12:27:23;;;;;;;3.88;2.88;;;28.90;99.90;;;;;;4984436;28;20106;-73
2023/08/14 12:29:51;;;;;;;5.93;3.25;;;28.80;99.90;;;;;;4981322;28;20034;-72
2023/08/14 12:32:18;;;;;;;6.13;3.72;;;28.70;99.90;;;;;;4982788;28;20058;-73
2023/08/14 12:34:43;;;;;;;4.70;3.53;;;28.60;99.90;;;;;;4962643;28;20508;-75
2023/08/14 12:37:12;;;;;;;3.60;3.28;;;28.60;99.90;;;;;;4983817;28;20058;-73
2023/08/14 12:39:38;;;;;;;7.00;3.45;;;28.50;99.90;;;;;;4982660;28;20109;-72
2023/08/14 12:42:04;;;;;;;5.50;4.22;;;28.40;99.90;;;;;;4986897;28;20501;-73
2023/08/14 12:44:30;;;;;;;7.72;3.85;;;28.30;99.90;;;;;;4980098;28;20088;-73